createdAt,value
2018-06-19T00:01:56.263Z,15.30
2018-06-19T00:04:23.537Z,15.30
2018-06-19T00:06:50.908Z,15.30
2018-06-19T00:09:18.226Z,15.40
2018-06-19T00:11:46.097Z,15.50
2018-06-19T00:14:13.369Z,15.50
2018-06-19T00:16:40.700Z,15.50
2018-06-19T00:19:08.367Z,15.50
2018-06-19T00:21:38.145Z,15.50
2018-06-19T00:24:05.533Z,15.50
2018-06-19T00:26:33.100Z,15.50
2018-06-19T00:29:00.456Z,15.40
2018-06-19T00:31:27.801Z,15.30
2018-06-19T00:33:55.125Z,15.30
2018-06-19T00:36:22.408Z,15.20
2018-06-19T00:38:49.652Z,15.20
2018-06-19T00:41:16.963Z,15.10
2018-06-19T00:43:44.236Z,15.10
2018-06-19T00:46:11.830Z,15.10
2018-06-19T00:48:39.136Z,15.00
2018-06-19T00:51:06.417Z,15.00
2018-06-19T00:53:33.726Z,14.90
2018-06-19T00:56:12.782Z,14.90
2018-06-19T01:01:07.488Z,14.80
2018-06-19T01:03:34.910Z,14.80
2018-06-19T01:06:02.244Z,14.80
2018-06-19T01:08:29.550Z,14.80
2018-06-19T01:10:56.817Z,14.70
2018-06-19T01:13:24.073Z,14.60
2018-06-19T01:15:51.505Z,14.60
2018-06-19T01:18:18.797Z,14.60
2018-06-19T01:20:46.043Z,14.60
2018-06-19T01:23:13.314Z,14.60
2018-06-19T01:25:40.637Z,14.60
2018-06-19T01:28:08.296Z,14.60
2018-06-19T01:30:35.739Z,14.70
2018-06-19T01:33:02.945Z,14.70
2018-06-19T01:35:30.185Z,14.70
2018-06-19T01:37:57.527Z,14.70
2018-06-19T01:40:24.753Z,14.80
2018-06-19T01:42:52.089Z,14.80
2018-06-19T01:45:19.431Z,14.80
2018-06-19T01:47:46.660Z,14.80
2018-06-19T01:50:13.922Z,14.80
2018-06-19T01:52:41.182Z,14.80
2018-06-19T01:55:09.421Z,14.70
2018-06-19T01:57:36.674Z,14.70
2018-06-19T02:00:03.965Z,14.70
2018-06-19T02:02:31.225Z,14.70
2018-06-19T02:04:58.588Z,14.80
2018-06-19T02:07:25.865Z,14.90
2018-06-19T02:09:53.120Z,14.90
2018-06-19T02:12:20.581Z,14.90
2018-06-19T02:14:47.858Z,14.90
2018-06-19T02:17:15.392Z,14.90
2018-06-19T02:19:42.742Z,15.00
2018-06-19T02:22:10.062Z,15.10
2018-06-19T02:24:37.286Z,15.10
2018-06-19T02:27:04.665Z,15.20
2018-06-19T02:29:31.952Z,15.20
2018-06-19T02:31:59.454Z,15.30
2018-06-19T02:34:26.701Z,15.30
2018-06-19T02:36:53.969Z,15.30
2018-06-19T02:39:21.224Z,15.40
2018-06-19T02:41:48.584Z,15.40
2018-06-19T02:44:15.856Z,15.40
2018-06-19T02:46:43.149Z,15.40
2018-06-19T02:49:10.433Z,15.40
2018-06-19T02:51:38.205Z,15.40
2018-06-19T02:54:05.483Z,15.40
2018-06-19T02:56:32.844Z,15.40
2018-06-19T02:59:00.321Z,15.40
2018-06-19T03:01:27.602Z,15.40
2018-06-19T03:03:54.888Z,15.40
2018-06-19T03:06:22.251Z,15.40
2018-06-19T03:11:17.669Z,15.40
2018-06-19T03:13:44.943Z,15.50
2018-06-19T03:16:12.201Z,15.50
2018-06-19T03:18:39.531Z,15.50
2018-06-19T03:21:06.956Z,15.50
2018-06-19T03:23:34.192Z,15.50
2018-06-19T03:26:01.561Z,15.50
2018-06-19T03:28:28.823Z,15.50
2018-06-19T03:30:56.214Z,15.50
2018-06-19T03:35:50.741Z,15.50
2018-06-19T03:38:18.150Z,15.60
2018-06-19T03:40:45.359Z,15.60
2018-06-19T03:43:12.657Z,15.60
2018-06-19T03:45:39.954Z,15.60
2018-06-19T03:48:07.212Z,15.60
2018-06-19T03:53:01.817Z,15.60
2018-06-19T03:55:29.508Z,15.60
2018-06-19T03:57:56.781Z,15.70
2018-06-19T04:00:24.025Z,15.70
2018-06-19T04:02:51.333Z,15.70
2018-06-19T04:05:18.608Z,15.70
2018-06-19T04:07:45.787Z,15.70
2018-06-19T04:10:13.219Z,15.70
2018-06-19T04:12:41.144Z,15.80
2018-06-19T04:15:08.488Z,15.80
2018-06-19T04:17:37.336Z,15.80
2018-06-19T04:20:04.657Z,15.80
2018-06-19T04:22:31.946Z,15.80
2018-06-19T04:24:59.182Z,15.80
2018-06-19T04:27:27.025Z,15.80
2018-06-19T04:29:54.329Z,15.80
2018-06-19T04:32:21.981Z,15.80
2018-06-19T04:34:49.321Z,15.90
2018-06-19T04:37:16.553Z,15.90
2018-06-19T04:39:43.769Z,15.90
2018-06-19T04:42:11.148Z,15.90
2018-06-19T04:47:05.613Z,15.90
2018-06-19T04:49:33.164Z,15.90
2018-06-19T04:52:00.542Z,16.00
2018-06-19T04:54:27.801Z,16.00
2018-06-19T04:56:55.022Z,16.10
2018-06-19T05:01:49.660Z,16.10
2018-06-19T05:04:16.985Z,16.10
2018-06-19T05:06:46.616Z,16.20
2018-06-19T05:09:14.400Z,16.10
2018-06-19T05:11:43.194Z,16.20
2018-06-19T05:14:10.836Z,16.30
2018-06-19T05:16:38.658Z,16.30
2018-06-19T05:19:06.022Z,16.30
2018-06-19T05:21:33.470Z,16.30
2018-06-19T05:24:00.745Z,16.50
2018-06-19T05:26:28.022Z,16.60
2018-06-19T05:28:55.389Z,16.60
2018-06-19T05:31:22.954Z,16.70
2018-06-19T05:33:51.284Z,16.60
2018-06-19T05:36:18.695Z,16.60
2018-06-19T05:38:46.024Z,16.60
2018-06-19T05:41:13.321Z,16.80
2018-06-19T05:43:40.637Z,16.80
2018-06-19T05:46:07.858Z,16.90
2018-06-19T05:48:35.189Z,16.80
2018-06-19T05:51:02.713Z,16.80
2018-06-19T05:53:29.964Z,16.90
2018-06-19T05:55:57.198Z,17.00
2018-06-19T06:00:51.760Z,17.10
2018-06-19T06:03:19.106Z,17.10
2018-06-19T06:05:46.412Z,17.10
2018-06-19T06:08:13.621Z,17.20
2018-06-19T06:10:40.902Z,17.10
2018-06-19T06:13:08.147Z,17.20
2018-06-19T06:15:35.463Z,17.10
2018-06-19T06:18:02.732Z,17.30
2018-06-19T06:20:30.040Z,17.30
2018-06-19T06:22:57.389Z,17.20
2018-06-19T06:25:24.774Z,17.30
2018-06-19T06:27:52.008Z,17.40
2018-06-19T06:30:20.125Z,17.50
2018-06-19T06:32:47.512Z,17.50
2018-06-19T06:35:14.855Z,17.60
2018-06-19T06:37:42.077Z,17.70
2018-06-19T06:40:09.397Z,17.70
2018-06-19T06:42:36.614Z,17.70
2018-06-19T06:45:04.330Z,17.80
2018-06-19T06:47:31.634Z,17.80
2018-06-19T06:49:58.909Z,18.10
2018-06-19T06:52:26.251Z,18.30
2018-06-19T06:54:53.563Z,18.20
2018-06-19T06:57:20.778Z,18.10
2018-06-19T06:59:48.107Z,18.00
2018-06-19T07:02:15.360Z,18.10
2018-06-19T07:04:42.767Z,18.40
2018-06-19T07:07:10.557Z,18.60
2018-06-19T07:09:37.761Z,18.90
2018-06-19T07:12:05.436Z,18.90
2018-06-19T07:14:32.761Z,19.00
2018-06-19T07:17:00.065Z,19.00
2018-06-19T07:19:27.309Z,19.00
2018-06-19T07:21:54.608Z,18.90
2018-06-19T07:24:22.553Z,18.70
2018-06-19T07:26:49.790Z,18.50
2018-06-19T07:29:17.022Z,18.40
2018-06-19T07:31:44.341Z,18.40
2018-06-19T07:34:12.383Z,18.50
2018-06-19T07:36:39.689Z,18.30
2018-06-19T07:39:07.965Z,18.60
2018-06-19T07:41:35.270Z,18.70
2018-06-19T07:44:02.571Z,19.00
2018-06-19T07:46:29.725Z,19.20
2018-06-19T07:48:56.941Z,19.10
2018-06-19T07:51:24.225Z,19.10
2018-06-19T07:53:51.482Z,19.30
2018-06-19T07:56:18.701Z,19.10
2018-06-19T07:58:45.955Z,19.20
2018-06-19T08:01:13.199Z,19.10
2018-06-19T08:03:40.610Z,19.00
2018-06-19T08:06:07.864Z,18.80
2018-06-19T08:08:35.125Z,18.70
2018-06-19T08:11:02.442Z,18.70
2018-06-19T08:13:29.721Z,18.70
2018-06-19T08:15:56.974Z,18.90
2018-06-19T08:18:24.272Z,19.10
2018-06-19T08:20:51.529Z,18.90
2018-06-19T08:23:18.819Z,18.70
2018-06-19T08:25:46.197Z,18.80
2018-06-19T08:28:13.784Z,19.10
2018-06-19T08:30:40.977Z,19.10
2018-06-19T08:33:08.245Z,19.00
2018-06-19T08:35:35.461Z,19.20
2018-06-19T08:38:02.737Z,19.10
2018-06-19T08:40:30.015Z,19.20
2018-06-19T08:42:57.313Z,19.10
2018-06-19T08:45:24.706Z,19.10
2018-06-19T08:47:51.916Z,18.90
2018-06-19T08:50:19.189Z,18.80
2018-06-19T08:55:13.734Z,18.20
2018-06-19T08:57:40.984Z,18.40
2018-06-19T09:00:07.721Z,18.40
2018-06-19T09:02:34.557Z,18.40
2018-06-19T09:05:01.322Z,18.40
2018-06-19T09:07:28.125Z,18.30
2018-06-19T09:09:54.860Z,18.10
2018-06-19T09:12:21.646Z,18.20
2018-06-19T09:14:48.404Z,18.30
2018-06-19T09:17:15.125Z,18.40
2018-06-19T09:22:08.643Z,18.60
2018-06-19T09:24:35.353Z,18.50
2018-06-19T09:27:02.103Z,18.60
2018-06-19T09:29:28.837Z,18.70
2018-06-19T09:31:55.668Z,18.60
2018-06-19T09:34:22.393Z,18.70
2018-06-19T09:36:49.167Z,18.70
2018-06-19T09:39:16.503Z,18.70
2018-06-19T09:41:44.225Z,18.60
2018-06-19T09:44:11.070Z,18.60
2018-06-19T09:46:37.871Z,18.50
2018-06-19T09:49:04.697Z,18.30
2018-06-19T09:51:31.453Z,18.20
2018-06-19T09:53:58.315Z,18.20
2018-06-19T09:56:25.037Z,18.20
2018-06-19T09:58:51.827Z,18.20
2018-06-19T10:01:18.537Z,18.20
2018-06-19T10:03:45.276Z,18.20
2018-06-19T10:06:12.071Z,18.20
2018-06-19T10:08:38.874Z,18.20
2018-06-19T10:11:05.668Z,18.20
2018-06-19T10:13:32.486Z,18.40
2018-06-19T10:15:59.409Z,18.60
2018-06-19T10:18:26.148Z,18.60
2018-06-19T10:20:52.904Z,18.50
2018-06-19T10:23:19.648Z,18.40
2018-06-19T10:25:46.551Z,18.40
2018-06-19T10:28:13.333Z,18.50
2018-06-19T10:30:40.151Z,18.50
2018-06-19T10:33:07.038Z,18.70
2018-06-19T10:35:33.830Z,18.90
2018-06-19T10:38:00.677Z,19.10
2018-06-19T10:40:27.448Z,19.30
2018-06-19T10:42:54.253Z,19.50
2018-06-19T10:45:20.971Z,19.60
2018-06-19T10:47:47.711Z,19.60
2018-06-19T10:50:14.443Z,19.70
2018-06-19T10:52:41.206Z,20.20
2018-06-19T10:55:08.049Z,20.50
2018-06-19T10:57:34.781Z,20.60
2018-06-19T11:02:29.424Z,21.40
2018-06-19T11:04:56.696Z,21.90
2018-06-19T11:07:28.668Z,21.80
2018-06-19T11:09:57.556Z,21.50
2018-06-19T11:12:25.101Z,21.50
2018-06-19T11:14:52.366Z,21.10
2018-06-19T11:17:19.609Z,20.70
2018-06-19T11:19:48.678Z,20.50
2018-06-19T11:24:42.708Z,20.00
2018-06-19T11:27:09.450Z,19.90
2018-06-19T11:29:36.256Z,19.80
2018-06-19T11:32:02.975Z,19.80
2018-06-19T11:34:29.781Z,19.80
2018-06-19T11:36:56.517Z,20.00
2018-06-19T11:39:23.242Z,20.20
2018-06-19T11:41:50.131Z,20.40
2018-06-19T11:44:16.877Z,20.50
2018-06-19T11:46:43.637Z,20.80
2018-06-19T11:49:10.424Z,21.10
2018-06-19T11:51:37.125Z,21.30
2018-06-19T11:54:03.925Z,21.90
2018-06-19T11:56:30.665Z,23.10
2018-06-19T11:58:57.493Z,23.40
2018-06-19T12:01:24.246Z,23.20
2018-06-19T12:03:50.985Z,23.10
2018-06-19T12:06:18.209Z,22.70
2018-06-19T12:08:44.913Z,22.00
2018-06-19T12:11:11.652Z,22.00
2018-06-19T12:13:38.385Z,21.80
2018-06-19T12:16:05.149Z,22.10
2018-06-19T12:18:32.011Z,22.60
2018-06-19T12:20:58.761Z,22.50
2018-06-19T12:23:25.505Z,22.30
2018-06-19T12:25:52.777Z,22.00
2018-06-19T12:28:19.549Z,21.80
2018-06-19T12:30:46.242Z,21.40
2018-06-19T12:33:12.993Z,20.80
2018-06-19T12:35:40.245Z,20.50
2018-06-19T12:38:07.482Z,20.40
2018-06-19T12:40:34.796Z,20.40
2018-06-19T12:43:02.055Z,20.70
2018-06-19T12:45:29.286Z,20.60
2018-06-19T12:47:56.564Z,20.70
2018-06-19T12:50:36.574Z,20.40
2018-06-19T12:53:16.046Z,20.20
2018-06-19T12:55:55.253Z,20.30
2018-06-19T12:58:22.761Z,20.20
2018-06-19T13:00:50.064Z,20.10
2018-06-19T13:03:29.170Z,20.20
2018-06-19T13:08:29.757Z,20.40
2018-06-19T13:10:57.087Z,20.60
2018-06-19T13:13:35.808Z,20.60
2018-06-19T13:16:03.133Z,20.90
2018-06-19T13:18:36.867Z,21.50
2018-06-19T13:21:03.705Z,21.70
2018-06-19T13:23:31.479Z,21.90
2018-06-19T13:25:59.130Z,21.60
2018-06-19T13:31:10.990Z,22.20
2018-06-19T13:33:38.298Z,21.60
2018-06-19T13:36:05.647Z,21.50
2018-06-19T13:38:32.931Z,21.10
2018-06-19T13:41:23.064Z,20.80
2018-06-19T13:44:03.558Z,21.30
2018-06-19T13:46:31.144Z,21.50
2018-06-19T13:48:58.376Z,21.70
2018-06-19T13:51:25.884Z,21.40
2018-06-19T13:53:53.275Z,21.70
2018-06-19T13:57:36.401Z,24.00
2018-06-19T14:00:09.218Z,25.20
2018-06-19T14:02:36.546Z,25.80
2018-06-19T14:05:04.433Z,24.50
2018-06-19T14:07:32.680Z,23.80
2018-06-19T14:10:05.330Z,22.90
2018-06-19T14:13:12.519Z,22.40
2018-06-19T14:15:43.690Z,22.50
2018-06-19T14:18:11.032Z,23.40
2018-06-19T14:20:39.510Z,24.20
2018-06-19T14:23:06.321Z,23.60
2018-06-19T14:25:33.117Z,23.90
2018-06-19T14:28:00.072Z,23.60
2018-06-19T14:30:26.903Z,22.90
2018-06-19T14:32:54.201Z,22.50
2018-06-19T14:35:22.640Z,22.30
2018-06-19T14:37:49.581Z,22.10
2018-06-19T14:40:16.729Z,22.00
2018-06-19T14:42:43.461Z,21.90
2018-06-19T14:45:10.967Z,22.30
2018-06-19T14:47:39.812Z,22.90
2018-06-19T14:50:06.877Z,22.40
2018-06-19T14:52:33.636Z,22.30
2018-06-19T14:55:00.637Z,22.20
2018-06-19T14:57:27.570Z,22.30
2018-06-19T14:59:54.827Z,22.00
2018-06-19T15:02:22.089Z,21.60
2018-06-19T15:04:49.384Z,21.50
2018-06-19T15:07:16.681Z,21.80
2018-06-19T15:09:43.970Z,21.80
2018-06-19T15:12:11.780Z,22.20
2018-06-19T15:14:38.549Z,22.20
2018-06-19T15:17:05.407Z,22.30
2018-06-19T15:19:32.249Z,22.20
2018-06-19T15:21:59.038Z,22.50
2018-06-19T15:24:25.857Z,22.60
2018-06-19T15:26:52.572Z,22.10
2018-06-19T15:29:19.593Z,22.20
2018-06-19T15:31:46.401Z,22.40
2018-06-19T15:34:13.154Z,22.70
2018-06-19T15:36:39.887Z,22.70
2018-06-19T15:39:08.628Z,22.50
2018-06-19T15:41:35.546Z,22.40
2018-06-19T15:44:02.951Z,23.10
2018-06-19T15:46:30.218Z,23.20
2018-06-19T15:48:57.806Z,22.60
2018-06-19T15:51:25.357Z,22.10
2018-06-19T15:53:52.728Z,22.00
2018-06-19T15:56:20.030Z,21.90
2018-06-19T15:58:47.294Z,21.90
2018-06-19T16:01:14.636Z,21.90
2018-06-19T16:03:41.924Z,22.00
2018-06-19T16:06:09.194Z,23.00
2018-06-19T16:08:36.968Z,24.60
2018-06-19T16:11:04.235Z,24.50
2018-06-19T16:13:31.523Z,24.60
2018-06-19T16:15:59.011Z,23.80
2018-06-19T16:18:26.258Z,22.90
2018-06-19T16:20:53.562Z,22.70
2018-06-19T16:23:20.985Z,22.70
2018-06-19T16:25:48.526Z,22.70
2018-06-19T16:28:15.755Z,24.30
2018-06-19T16:30:42.960Z,25.90
2018-06-19T16:33:10.570Z,25.90
2018-06-19T16:35:37.897Z,25.30
2018-06-19T16:38:05.285Z,24.60
2018-06-19T16:40:32.572Z,23.80
2018-06-19T16:42:59.913Z,23.20
2018-06-19T16:45:27.296Z,23.20
2018-06-19T16:47:54.537Z,23.20
2018-06-19T16:50:21.385Z,24.10
2018-06-19T16:52:48.164Z,25.50
2018-06-19T16:55:15.434Z,25.90
2018-06-19T16:57:42.719Z,26.70
2018-06-19T17:00:10.101Z,28.00
2018-06-19T17:02:37.318Z,26.10
2018-06-19T17:05:04.683Z,26.40
2018-06-19T17:07:31.913Z,26.60
2018-06-19T17:09:59.213Z,28.20
2018-06-19T17:12:26.484Z,28.40
2018-06-19T17:14:53.779Z,28.20
2018-06-19T17:17:21.067Z,27.40
2018-06-19T17:19:48.476Z,28.00
2018-06-19T17:22:15.810Z,27.80
2018-06-19T17:24:43.082Z,27.60
2018-06-19T17:27:10.715Z,26.50
2018-06-19T17:29:38.025Z,25.00
2018-06-19T17:32:05.264Z,23.90
2018-06-19T17:34:31.999Z,23.20
2018-06-19T17:36:59.328Z,22.80
2018-06-19T17:39:26.055Z,22.30
2018-06-19T17:41:53.352Z,21.90
2018-06-19T17:44:20.602Z,21.70
2018-06-19T17:46:47.833Z,21.50
2018-06-19T17:49:14.630Z,21.30
2018-06-19T17:51:42.106Z,21.20
2018-06-19T17:54:09.390Z,21.20
2018-06-19T17:59:04.058Z,20.80
2018-06-19T18:01:31.325Z,20.60
2018-06-19T18:03:58.664Z,20.50
2018-06-19T18:06:25.891Z,20.50
2018-06-19T18:08:53.184Z,20.30
2018-06-19T18:11:20.433Z,20.20
2018-06-19T18:13:47.801Z,20.10
2018-06-19T18:16:15.125Z,20.00
2018-06-19T18:18:42.486Z,20.00
2018-06-19T18:21:09.839Z,19.90
2018-06-19T18:23:37.207Z,19.80
2018-06-19T18:26:04.650Z,19.70
2018-06-19T18:28:31.968Z,19.70
2018-06-19T18:30:59.264Z,19.70
2018-06-19T18:33:26.481Z,19.50
2018-06-19T18:35:53.869Z,19.40
2018-06-19T18:38:21.169Z,19.40
2018-06-19T18:40:48.677Z,19.60
2018-06-19T18:43:16.187Z,19.60
2018-06-19T18:45:43.546Z,19.40
2018-06-19T18:48:10.953Z,19.40
2018-06-19T18:50:38.209Z,19.40
2018-06-19T18:53:05.523Z,19.20
2018-06-19T18:55:32.809Z,19.20
2018-06-19T18:58:00.074Z,19.00
2018-06-19T19:00:27.371Z,18.80
2018-06-19T19:02:54.641Z,18.80
2018-06-19T19:07:49.230Z,18.60
2018-06-19T19:10:22.432Z,18.60
2018-06-19T19:12:49.922Z,18.50
2018-06-19T19:15:22.839Z,18.40
2018-06-19T19:17:55.896Z,18.30
2018-06-19T19:20:23.241Z,18.30
2018-06-19T19:22:50.465Z,18.20
2018-06-19T19:25:17.742Z,18.10
2018-06-19T19:27:50.682Z,18.10
2018-06-19T19:30:18.002Z,18.00
2018-06-19T19:32:45.267Z,17.90
2018-06-19T19:35:12.788Z,17.80
2018-06-19T19:37:45.678Z,17.80
2018-06-19T19:40:13.026Z,17.70
2018-06-19T19:42:40.289Z,17.70
2018-06-19T19:45:07.608Z,17.60
2018-06-19T19:47:40.556Z,17.50
2018-06-19T19:50:07.831Z,17.50
2018-06-19T19:52:35.157Z,17.50
2018-06-19T19:55:02.438Z,17.50
2018-06-19T19:57:36.118Z,17.40
2018-06-19T20:00:04.473Z,17.40
2018-06-19T20:04:59.161Z,17.20
2018-06-19T20:07:26.389Z,17.20
2018-06-19T20:09:53.621Z,17.10
2018-06-19T20:12:20.998Z,17.10
2018-06-19T20:14:48.253Z,17.00
2018-06-19T20:17:15.726Z,17.00
2018-06-19T20:19:42.944Z,16.90
2018-06-19T20:22:10.150Z,16.80
2018-06-19T20:24:37.472Z,16.70
2018-06-19T20:27:04.792Z,16.70
2018-06-19T20:29:32.090Z,16.60
2018-06-19T20:31:59.410Z,16.50
2018-06-19T20:34:26.790Z,16.40
2018-06-19T20:36:54.018Z,16.30
2018-06-19T20:39:21.330Z,16.20
2018-06-19T20:41:48.855Z,16.20
2018-06-19T20:44:16.185Z,16.10
2018-06-19T20:46:43.520Z,16.00
2018-06-19T20:49:10.772Z,16.00
2018-06-19T20:51:38.088Z,15.90
2018-06-19T20:54:05.395Z,15.80
2018-06-19T20:56:32.743Z,15.80
2018-06-19T20:59:00.104Z,15.80
2018-06-19T21:01:27.480Z,15.70
2018-06-19T21:03:54.845Z,15.60
2018-06-19T21:06:22.187Z,15.60
2018-06-19T21:08:49.565Z,15.60
2018-06-19T21:11:16.981Z,15.50
2018-06-19T21:13:44.329Z,15.50
2018-06-19T21:16:12.479Z,15.40
2018-06-19T21:18:39.859Z,15.40
2018-06-19T21:21:07.870Z,15.40
2018-06-19T21:23:35.665Z,15.30
2018-06-19T21:26:03.730Z,15.40
2018-06-19T21:28:31.056Z,15.30
2018-06-19T21:30:58.784Z,15.30
2018-06-19T21:33:27.346Z,15.30
2018-06-19T21:35:54.715Z,15.20
2018-06-19T21:38:22.091Z,15.20
2018-06-19T21:40:49.417Z,15.10
2018-06-19T21:43:17.135Z,15.10
2018-06-19T21:45:44.444Z,15.20
2018-06-19T21:48:11.784Z,15.10
2018-06-19T21:50:39.145Z,15.20
2018-06-19T21:53:06.561Z,15.10
2018-06-19T21:55:33.908Z,15.10
2018-06-19T21:58:01.250Z,15.00
2018-06-19T22:00:29.477Z,15.00
2018-06-19T22:02:56.911Z,15.00
2018-06-19T22:05:24.272Z,14.90
2018-06-19T22:07:51.716Z,15.00
2018-06-19T22:10:19.024Z,14.90
2018-06-19T22:12:46.358Z,14.90
2018-06-19T22:15:14.049Z,14.90
2018-06-19T22:17:41.399Z,14.80
2018-06-19T22:20:08.742Z,14.80
2018-06-19T22:22:36.080Z,14.80
2018-06-19T22:25:03.535Z,14.80
2018-06-19T22:27:30.860Z,14.80
2018-06-19T22:29:58.205Z,14.80
2018-06-19T22:32:25.637Z,14.80
2018-06-19T22:34:53.037Z,14.80
2018-06-19T22:37:20.484Z,14.90
2018-06-19T22:39:47.892Z,14.90
2018-06-19T22:42:15.244Z,14.90
2018-06-19T22:44:42.600Z,14.90
2018-06-19T22:47:09.973Z,14.80
2018-06-19T22:49:37.412Z,14.70
2018-06-19T22:52:04.752Z,14.70
2018-06-19T22:54:32.113Z,14.70
2018-06-19T22:56:59.720Z,14.70
2018-06-19T22:59:27.069Z,14.70
2018-06-19T23:01:54.433Z,14.60
2018-06-19T23:04:21.768Z,14.60
2018-06-19T23:06:49.124Z,14.50
2018-06-19T23:09:16.528Z,14.50
2018-06-19T23:11:43.903Z,14.50
2018-06-19T23:14:11.312Z,14.40
2018-06-19T23:16:38.646Z,14.40
2018-06-19T23:19:06.075Z,14.40
2018-06-19T23:21:33.415Z,14.40
2018-06-19T23:24:00.775Z,14.30
2018-06-19T23:26:28.148Z,14.30
2018-06-19T23:28:55.547Z,14.30
2018-06-19T23:31:22.902Z,14.30
2018-06-19T23:33:50.264Z,14.30
2018-06-19T23:36:17.687Z,14.30
2018-06-19T23:38:45.064Z,14.30
2018-06-19T23:41:12.531Z,14.30
2018-06-19T23:43:39.899Z,14.20
2018-06-19T23:46:07.269Z,14.20
2018-06-19T23:48:34.736Z,14.10
2018-06-19T23:51:02.099Z,14.00
2018-06-19T23:53:29.416Z,13.90
2018-06-19T23:55:56.771Z,13.80
2018-06-19T23:58:24.155Z,13.80
